Time;durP1;ratioP1;P1;durP2;ratioP2;P2;SDS_P1;SDS_P2;PMS_P1;PMS_P2;Temp;Humidity;BMP_temperature;BMP_pressure;BME280_temperature;BME280_humidity;BME280_pressure;Samples;Min_cycle;Max_cycle;Signal;HPM_P1;HPM_P2
2022/03/13 00:01:47;;;;;;;17.40;12.32;;;6.50;46.80;;;;;;7375116;19;20148;-76
2022/03/13 00:04:17;;;;;;;16.20;10.75;;;6.50;46.40;;;;;;7373739;19;20681;-77
2022/03/13 00:06:47;;;;;;;17.60;11.23;;;6.50;46.20;;;;;;7372359;19;20166;-77
2022/03/13 00:09:17;;;;;;;20.45;11.10;;;6.40;46.50;;;;;;7376160;19;20602;-76
2022/03/13 00:11:52;;;;;;;16.67;10.77;;;6.40;46.80;;;;;;7376681;19;20147;-76
2022/03/13 00:14:24;;;;;;;14.65;10.32;;;6.30;46.90;;;;;;7375738;19;20143;-77
2022/03/13 00:16:59;;;;;;;18.33;11.63;;;6.20;46.40;;;;;;7379789;19;20731;-76
2022/03/13 00:19:29;;;;;;;21.40;11.20;;;6.20;46.40;;;;;;7379371;19;20135;-77
2022/03/13 00:21:58;;;;;;;20.95;11.82;;;6.20;46.30;;;;;;7373840;19;20532;-78
2022/03/13 00:24:30;;;;;;;20.73;12.32;;;6.20;46.10;;;;;;7374699;19;20889;-76
2022/03/13 00:27:00;;;;;;;15.30;10.85;;;6.10;46.40;;;;;;7376224;19;21143;-76
2022/03/13 00:29:34;;;;;;;16.65;10.18;;;6.20;46.70;;;;;;7376606;19;20199;-77
2022/03/13 00:32:07;;;;;;;15.38;10.50;;;6.20;46.50;;;;;;7373924;19;20140;-76
2022/03/13 00:34:37;;;;;;;21.10;11.70;;;6.10;46.40;;;;;;7377817;19;20142;-76
2022/03/13 00:37:07;;;;;;;16.75;10.90;;;6.00;46.50;;;;;;7372532;19;20246;-76
2022/03/13 00:39:39;;;;;;;16.10;11.10;;;6.00;46.70;;;;;;7378460;19;20166;-76
2022/03/13 00:42:09;;;;;;;17.02;10.50;;;6.00;46.40;;;;;;7371367;19;20159;-77
2022/03/13 00:44:39;;;;;;;19.40;11.45;;;5.90;46.10;;;;;;7375414;19;20138;-77
2022/03/13 00:47:11;;;;;;;19.15;10.77;;;5.90;46.40;;;;;;7371770;19;20163;-77
2022/03/13 00:49:41;;;;;;;17.77;11.10;;;5.90;46.60;;;;;;7379381;19;20497;-76
2022/03/13 00:52:10;;;;;;;16.17;10.30;;;5.80;46.50;;;;;;7376265;19;20138;-76
2022/03/13 00:54:40;;;;;;;17.90;11.05;;;5.80;46.00;;;;;;7374979;19;20147;-78
2022/03/13 00:57:09;;;;;;;19.55;10.63;;;5.70;46.10;;;;;;7376804;19;20144;-76
2022/03/13 00:59:39;;;;;;;15.00;9.80;;;5.70;46.20;;;;;;7377163;19;20135;-78
2022/03/13 01:02:11;;;;;;;18.10;10.65;;;5.70;46.40;;;;;;7372190;19;20646;-77
2022/03/13 01:04:46;;;;;;;15.90;10.43;;;5.70;46.10;;;;;;7377356;19;20618;-77
2022/03/13 01:07:18;;;;;;;15.85;10.40;;;5.80;46.20;;;;;;7379288;19;20791;-76
2022/03/13 01:09:47;;;;;;;15.65;9.52;;;5.80;45.30;;;;;;7376244;19;20135;-76
2022/03/13 01:12:17;;;;;;;17.42;10.55;;;5.80;45.00;;;;;;7377064;19;20722;-76
2022/03/13 01:14:52;;;;;;;18.58;10.10;;;5.80;44.80;;;;;;7378891;19;20170;-77
2022/03/13 01:17:24;;;;;;;17.85;9.75;;;5.80;44.80;;;;;;7369816;19;20131;-77
2022/03/13 01:19:54;;;;;;;16.73;9.23;;;5.80;44.80;;;;;;7374485;19;20145;-80
2022/03/13 01:22:23;;;;;;;16.65;10.18;;;5.80;44.70;;;;;;7370659;19;20136;-76
2022/03/13 01:24:53;;;;;;;13.55;9.07;;;5.70;45.50;;;;;;7376960;19;20132;-76
2022/03/13 01:27:24;;;;;;;17.02;10.32;;;5.60;45.30;;;;;;7371960;19;20147;-76
2022/03/13 01:29:53;;;;;;;14.60;9.68;;;5.60;45.10;;;;;;7373151;19;20552;-76
2022/03/13 01:32:25;;;;;;;16.13;8.95;;;5.70;44.40;;;;;;7376364;19;20143;-77
2022/03/13 01:34:55;;;;;;;15.23;9.02;;;5.60;44.50;;;;;;7376932;19;21644;-77
2022/03/13 01:37:33;;;;;;;13.90;9.20;;;5.60;44.70;;;;;;7376899;19;20517;-77
2022/03/13 01:40:11;;;;;;;14.70;9.23;;;5.60;45.00;;;;;;7373504;19;20720;-78
2022/03/13 01:42:44;;;;;;;14.52;9.20;;;5.70;45.30;;;;;;7372079;19;20170;-77
2022/03/13 01:45:16;;;;;;;14.63;9.80;;;5.60;45.70;;;;;;7373559;19;20146;-77
2022/03/13 01:47:51;;;;;;;16.40;9.68;;;5.60;45.90;;;;;;7371923;19;20158;-78
2022/03/13 01:50:21;;;;;;;13.48;8.40;;;5.50;45.40;;;;;;7370691;19;20171;-77
2022/03/13 01:52:53;;;;;;;15.57;9.40;;;5.40;45.50;;;;;;7375378;19;20166;-77
2022/03/13 01:55:23;;;;;;;16.08;9.63;;;5.40;45.20;;;;;;7372956;19;20151;-77
2022/03/13 01:57:53;;;;;;;13.38;8.05;;;5.50;45.40;;;;;;7380394;19;20199;-77
2022/03/13 02:00:22;;;;;;;16.23;9.18;;;5.50;44.80;;;;;;7376335;19;20140;-79
2022/03/13 02:02:54;;;;;;;12.77;8.05;;;5.50;44.50;;;;;;7380658;19;20144;-77
2022/03/13 02:05:32;;;;;;;10.43;8.05;;;5.60;44.20;;;;;;7380116;19;20725;-77
2022/03/13 02:08:03;;;;;;;15.13;9.15;;;5.60;43.70;;;;;;7380746;19;20142;-76
2022/03/13 02:10:33;;;;;;;14.25;9.23;;;5.50;44.10;;;;;;7381920;19;20132;-77
2022/03/13 02:13:10;;;;;;;12.68;8.13;;;5.40;44.10;;;;;;7379634;19;20476;-76
2022/03/13 02:15:42;;;;;;;13.50;8.95;;;5.40;44.00;;;;;;7379747;19;20152;-77
2022/03/13 02:18:16;;;;;;;18.25;10.38;;;5.40;43.90;;;;;;7376006;19;20150;-75
2022/03/13 02:20:48;;;;;;;17.58;9.48;;;5.30;44.80;;;;;;7379633;19;20593;-80
2022/03/13 02:23:25;;;;;;;16.08;8.68;;;5.30;45.20;;;;;;7380803;19;20218;-81
2022/03/13 02:25:59;;;;;;;17.15;9.32;;;5.30;45.00;;;;;;7385992;19;20524;-81
2022/03/13 02:28:31;;;;;;;14.48;9.32;;;5.20;44.70;;;;;;7381818;19;20139;-81
2022/03/13 02:31:03;;;;;;;15.00;9.48;;;5.10;44.60;;;;;;7375520;19;20983;-80
2022/03/13 02:33:34;;;;;;;16.63;9.80;;;5.10;44.70;;;;;;7384207;19;20146;-81
2022/03/13 02:36:07;;;;;;;14.18;8.35;;;5.00;44.70;;;;;;7383783;19;20176;-80
2022/03/13 02:38:42;;;;;;;16.23;8.82;;;4.90;44.30;;;;;;7382035;19;20143;-81
2022/03/13 02:41:13;;;;;;;12.85;7.85;;;4.90;44.40;;;;;;7382940;19;20193;-81
2022/03/13 02:43:43;;;;;;;13.90;8.10;;;4.90;45.20;;;;;;7379070;19;20143;-81
2022/03/13 02:46:22;;;;;;;14.05;9.73;;;4.80;44.70;;;;;;7379376;19;20164;-81
2022/03/13 02:48:53;;;;;;;14.32;8.25;;;4.80;44.80;;;;;;7382239;19;20131;-81
2022/03/13 02:51:22;;;;;;;16.17;9.55;;;4.80;45.10;;;;;;7385067;19;20515;-81
2022/03/13 02:53:54;;;;;;;14.27;9.27;;;4.90;45.20;;;;;;7381746;19;20135;-80
2022/03/13 02:56:24;;;;;;;13.70;8.20;;;4.80;44.70;;;;;;7385427;19;20143;-81
2022/03/13 02:58:54;;;;;;;17.98;9.32;;;;;;;;;;7383045;19;20990;-81
2022/03/13 03:01:24;;;;;;;13.18;9.02;;;;;;;;;;7380949;19;20168;-81
2022/03/13 03:04:00;;;;;;;15.50;9.73;;;;;;;;;;7380836;19;20139;-81
2022/03/13 03:06:31;;;;;;;17.48;9.93;;;;;;;;;;7380608;19;20223;-81
2022/03/13 03:09:04;;;;;;;15.80;9.73;;;;;;;;;;7381781;19;20150;-81
2022/03/13 03:11:37;;;;;;;15.05;9.68;;;;;;;;;;7387612;19;20138;-80
2022/03/13 03:14:07;;;;;;;14.90;9.35;;;;;;;;;;7386482;19;20460;-80
2022/03/13 03:16:37;;;;;;;16.27;9.45;;;;;;;;;;7384995;19;20150;-81
2022/03/13 03:19:07;;;;;;;14.68;10.20;;;;;;;;;;7386683;19;20135;-81
2022/03/13 03:21:39;;;;;;;13.75;9.30;;;;;;;;;;7388959;19;20614;-81
2022/03/13 03:24:20;;;;;;;37.13;12.43;;;;;;;;;;7395100;19;20518;-81
2022/03/13 03:26:53;;;;;;;17.50;11.50;;;;;;;;;;7397075;19;20132;-77
2022/03/13 03:29:23;;;;;;;17.63;10.85;;;;;;;;;;7400629;19;20147;-77
2022/03/13 03:31:55;;;;;;;14.40;9.30;;;;;;;;;;7402380;19;20189;-76
2022/03/13 03:34:26;;;;;;;19.25;12.05;;;;;;;;;;7406477;19;20501;-77
2022/03/13 03:36:57;;;;;;;17.85;11.55;;;;;;;;;;7395661;19;20136;-77
2022/03/13 03:39:32;;;;;;;18.17;10.60;;;;;;;;;;7388732;19;20143;-77
2022/03/13 03:42:02;;;;;;;19.90;12.43;;;;;;;;;;7385818;19;20260;-77
2022/03/13 03:44:32;;;;;;;20.30;11.32;;;;;;;;;;7384485;19;20136;-77
2022/03/13 03:47:02;;;;;;;20.05;12.23;;;;;;;;;;7383955;19;20151;-77
2022/03/13 03:49:34;;;;;;;18.75;11.55;;;;;;;;;;7383415;19;20143;-77
2022/03/13 03:52:04;;;;;;;20.80;12.07;;;;;;;;;;7382307;19;20138;-77
2022/03/13 03:54:36;;;;;;;19.58;11.65;;;;;;;;;;7383309;19;20937;-77
2022/03/13 03:57:11;;;;;;;17.90;11.75;;;;;;;;;;7381657;19;21924;-76
2022/03/13 03:59:40;;;;;;;21.90;12.02;;;;;;;;;;7382072;19;21174;-76
2022/03/13 04:02:10;;;;;;;22.25;13.00;;;;;;;;;;7378549;19;20140;-76
2022/03/13 04:04:40;;;;;;;18.73;12.73;;;;;;;;;;7379778;19;20150;-76
2022/03/13 04:07:09;;;;;;;17.08;10.43;;;;;;;;;;7377426;19;20159;-78
2022/03/13 04:09:44;;;;;;;18.58;12.15;;;;;;;;;;7378156;19;20146;-76
2022/03/13 04:12:15;;;;;;;19.02;11.30;;;;;;;;;;7378094;19;20181;-75
2022/03/13 04:14:44;;;;;;;18.75;11.52;;;;;;;;;;7379446;19;20893;-76
2022/03/13 04:17:14;;;;;;;20.75;12.52;;;;;;;;;;7375049;19;20511;-76
2022/03/13 04:19:43;;;;;;;20.77;11.65;;;;;;;;;;7373945;19;20529;-75
2022/03/13 04:22:15;;;;;;;18.80;13.38;;;;;;;;;;7377942;19;20173;-77
2022/03/13 04:24:47;;;;;;;18.13;11.20;;;;;;;;;;7379430;19;20518;-77
2022/03/13 04:27:17;;;;;;;23.60;12.10;;;;;;;;;;7376510;19;20155;-75
2022/03/13 04:29:47;;;;;;;22.33;12.20;;;;;;;;;;7375980;19;20135;-76
2022/03/13 04:32:19;;;;;;;18.45;10.93;;;;;;;;;;7382554;19;20120;-77
2022/03/13 04:34:49;;;;;;;22.52;12.23;;;;;;;;;;7416424;19;20132;-76
2022/03/13 04:37:19;;;;;;;19.60;12.05;;;;;;;;;;7414256;19;20153;-77
2022/03/13 04:39:54;;;;;;;22.80;12.52;;;;;;;;;;7417421;19;20138;-76
2022/03/13 04:42:26;;;;;;;23.58;12.38;;;;;;;;;;7413075;19;20147;-77
2022/03/13 04:44:55;;;;;;;19.20;12.30;;;;;;;;;;7416382;19;20139;-76
2022/03/13 04:47:31;;;;;;;20.33;12.30;;;;;;;;;;7414938;19;20155;-76
2022/03/13 04:50:00;;;;;;;24.20;11.60;;;;;;;;;;7415298;19;20111;-77
2022/03/13 04:52:30;;;;;;;19.55;11.98;;;;;;;;;;7415985;19;20163;-78
2022/03/13 04:55:03;;;;;;;17.80;11.60;;;;;;;;;;7416635;19;20551;-77
2022/03/13 04:57:32;;;;;;;21.48;12.80;;;;;;;;;;7417829;19;20135;-77
2022/03/13 05:00:02;;;;;;;18.58;11.85;;;;;;;;;;7416953;19;20159;-77
2022/03/13 05:02:32;;;;;;;22.48;12.45;;;;;;;;;;7415706;19;20169;-77
2022/03/13 05:05:02;;;;;;;25.17;12.73;;;;;;;;;;7413779;19;20136;-76
2022/03/13 05:07:32;;;;;;;23.27;12.35;;;;;;;;;;7415212;19;20136;-76
2022/03/13 05:10:05;;;;;;;24.35;12.60;;;;;;;;;;7412163;19;20168;-77
2022/03/13 05:12:35;;;;;;;16.65;11.75;;;;;;;;;;7410352;19;20160;-77
2022/03/13 05:15:07;;;;;;;21.75;12.35;;;;;;;;;;7412237;19;20160;-77
2022/03/13 05:17:39;;;;;;;18.25;11.88;;;;;;;;;;7419096;19;20136;-77
2022/03/13 05:20:10;;;;;;;20.92;11.55;;;;;;;;;;7413495;19;20117;-77
2022/03/13 05:22:40;;;;;;;26.52;13.35;;;;;;;;;;7423373;19;20132;-77
2022/03/13 05:25:15;;;;;;;19.38;11.73;;;;;;;;;;7423106;19;20148;-77
2022/03/13 05:27:44;;;;;;;20.05;11.45;;;;;;;;;;7422622;19;20132;-77
2022/03/13 05:30:15;;;;;;;21.40;11.93;;;;;;;;;;7425065;19;20124;-77
2022/03/13 05:32:44;;;;;;;22.80;12.85;;;;;;;;;;7432950;19;20127;-77
2022/03/13 05:35:14;;;;;;;23.13;13.20;;;;;;;;;;7429022;19;20148;-75
2022/03/13 05:37:46;;;;;;;21.55;12.57;;;;;;;;;;7431707;19;20136;-78
2022/03/13 05:40:19;;;;;;;19.23;12.30;;;;;;;;;;7432541;19;20131;-79
2022/03/13 05:42:50;;;;;;;21.33;12.50;;;;;;;;;;7428189;19;20152;-76
2022/03/13 05:45:22;;;;;;;21.75;13.50;;;;;;;;;;7432458;19;20140;-76
2022/03/13 05:47:53;;;;;;;21.45;13.13;;;;;;;;;;7434127;19;20159;-76
2022/03/13 05:50:24;;;;;;;18.83;13.63;;;;;;;;;;7422040;19;20488;-78
2022/03/13 05:52:56;;;;;;;18.98;12.38;;;;;;;;;;7410968;19;20148;-78
2022/03/13 05:55:28;;;;;;;22.90;13.77;;;;;;;;;;7394297;19;20146;-74
2022/03/13 05:57:58;;;;;;;22.75;14.50;;;;;;;;;;7381808;19;20144;-74
2022/03/13 06:00:29;;;;;;;24.17;12.48;;;;;;;;;;7379949;19;20138;-72
2022/03/13 06:02:59;;;;;;;21.02;13.10;;;;;;;;;;7375179;19;20797;-73
2022/03/13 06:05:35;;;;;;;20.65;12.00;;;;;;;;;;7373662;19;21037;-73
2022/03/13 06:08:08;;;;;;;24.23;14.05;;;;;;;;;;7375644;19;20141;-72
2022/03/13 06:10:40;;;;;;;21.27;13.23;;;;;;;;;;7380693;19;20146;-73
2022/03/13 06:13:10;;;;;;;21.77;13.32;;;;;;;;;;7366988;19;20618;-75
2022/03/13 06:15:39;;;;;;;23.35;12.52;;;;;;;;;;7379119;19;20128;-75
2022/03/13 06:18:12;;;;;;;23.08;13.40;;;;;;;;;;7382792;19;20143;-75
2022/03/13 06:20:41;;;;;;;23.63;13.65;;;;;;;;;;7388705;19;20140;-75
2022/03/13 06:23:13;;;;;;;23.35;13.40;;;;;;;;;;7392636;19;20143;-75
2022/03/13 06:25:46;;;;;;;20.48;13.02;;;;;;;;;;7387969;19;20147;-74
2022/03/13 06:28:16;;;;;;;20.40;14.40;;;;;;;;;;7387966;19;20132;-75
2022/03/13 06:30:46;;;;;;;22.15;11.88;;;;;;;;;;7386191;19;20139;-75
2022/03/13 06:33:16;;;;;;;22.88;13.20;;;;;;;;;;7389473;19;20147;-75
2022/03/13 06:35:45;;;;;;;20.08;13.07;;;;;;;;;;7387972;19;20749;-74
2022/03/13 06:38:15;;;;;;;19.80;12.10;;;;;;;;;;7390361;19;20143;-75
2022/03/13 06:40:47;;;;;;;25.23;12.70;;;;;;;;;;7388579;19;20155;-74
2022/03/13 06:43:17;;;;;;;18.40;11.38;;;;;;;;;;7383974;19;20139;-75
2022/03/13 06:45:46;;;;;;;21.48;12.10;;;;;;;;;;7385771;19;20154;-75
2022/03/13 06:48:21;;;;;;;21.17;12.70;;;;;;;;;;7383727;19;20934;-75
2022/03/13 06:50:53;;;;;;;21.88;12.68;;;;;;;;;;7382428;19;20136;-75
2022/03/13 06:53:23;;;;;;;21.42;12.50;;;;;;;;;;7376289;19;20497;-74
2022/03/13 06:55:55;;;;;;;17.17;12.25;;;;;;;;;;7378469;19;20139;-75
2022/03/13 06:58:25;;;;;;;22.33;13.48;;;;;;;;;;7380586;19;20147;-74
2022/03/13 07:00:54;;;;;;;21.08;13.98;;;;;;;;;;7380496;19;20155;-75
2022/03/13 07:03:24;;;;;;;20.95;12.30;;;;;;;;;;7378836;19;20131;-76
2022/03/13 07:05:53;;;;;;;20.83;12.90;;;;;;;;;;7379204;19;20207;-75
2022/03/13 07:08:23;;;;;;;20.65;13.65;;;;;;;;;;7372753;19;20244;-74
2022/03/13 07:10:56;;;;;;;21.17;12.57;;;;;;;;;;7377821;19;20148;-75
2022/03/13 07:13:32;;;;;;;21.48;14.15;;;;;;;;;;7366955;19;20143;-72
2022/03/13 07:16:06;;;;;;;26.25;15.32;;;;;;;;;;7370197;19;20638;-70
2022/03/13 07:18:36;;;;;;;25.33;16.05;;;;;;;;;;7379481;19;20138;-70
2022/03/13 07:21:08;;;;;;;21.60;15.45;;;;;;;;;;7377400;19;20172;-70
2022/03/13 07:23:38;;;;;;;26.05;15.05;;;;;;;;;;7374128;19;20131;-69
2022/03/13 07:26:10;;;;;;;23.88;15.13;;;;;;;;;;7380891;19;20151;-71
2022/03/13 07:28:40;;;;;;;21.98;14.05;;;;;;;;;;7376017;19;20154;-70
2022/03/13 07:31:09;;;;;;;25.50;15.50;;;;;;;;;;7376385;19;20243;-71
2022/03/13 07:33:41;;;;;;;24.17;15.40;;;;;;;;;;7379357;19;20132;-74
2022/03/13 07:36:11;;;;;;;24.63;14.45;;;;;;;;;;7378943;19;20135;-69
2022/03/13 07:38:41;;;;;;;22.75;14.68;;;;;;;;;;7376833;19;20625;-69
2022/03/13 07:41:15;;;;;;;29.88;20.05;;;;;;;;;;7373467;19;20180;-68
2022/03/13 07:43:44;;;;;;;31.17;20.25;;;;;;;;;;7376612;19;20135;-72
2022/03/13 07:46:17;;;;;;;35.67;19.75;;;;;;;;;;7371400;19;20175;-73
2022/03/13 07:48:49;;;;;;;27.20;16.27;;;;;;;;;;7378329;19;20143;-72
2022/03/13 07:51:19;;;;;;;27.60;17.67;;;;;;;;;;7375415;19;20944;-72
2022/03/13 07:53:49;;;;;;;30.88;16.95;;;;;;;;;;7374339;19;20138;-72
2022/03/13 07:56:21;;;;;;;24.40;17.70;;;;;;;;;;7379921;19;20151;-72
2022/03/13 07:58:51;;;;;;;32.00;19.23;;;;;;;;;;7380090;19;20405;-72
2022/03/13 08:01:20;;;;;;;23.77;15.80;;;;;;;;;;7367536;19;20492;-72
2022/03/13 08:03:53;;;;;;;26.83;16.70;;;;;;;;;;7371748;19;20186;-73
2022/03/13 08:06:23;;;;;;;25.83;16.60;;;;;;;;;;7381924;19;20404;-72
2022/03/13 08:08:54;;;;;;;23.33;16.20;;;;;;;;;;7377380;19;20411;-72
2022/03/13 08:11:26;;;;;;;25.33;16.80;;;;;;;;;;7372281;19;20978;-72
2022/03/13 08:13:56;;;;;;;26.17;16.97;;;;;;;;;;7375079;19;20388;-72
2022/03/13 08:16:27;;;;;;;55.80;26.73;;;;;;;;;;7376380;19;20420;-73
2022/03/13 08:18:56;;;;;;;36.43;22.37;;;;;;;;;;7379218;19;20391;-72
2022/03/13 08:21:26;;;;;;;30.90;20.13;;;;;;;;;;7372728;19;20429;-71
2022/03/13 08:23:56;;;;;;;33.60;21.13;;;;;;;;;;7381266;19;20479;-72
2022/03/13 08:26:31;;;;;;;29.83;18.83;;;;;;;;;;7374506;19;20501;-72
2022/03/13 08:29:01;;;;;;;26.30;16.87;;;;;;;;;;7374144;19;20408;-73
2022/03/13 08:31:30;;;;;;;27.53;17.93;;;;;;;;;;7378322;19;21282;-72
2022/03/13 08:34:07;;;;;;;23.00;16.20;;;;;;;;;;7378454;19;20404;-73
2022/03/13 08:36:37;;;;;;;25.10;17.40;;;;;;;;;;7374512;19;20396;-73
2022/03/13 08:39:06;;;;;;;25.43;17.67;;;;;;;;;;7380526;19;20535;-73
2022/03/13 08:41:40;;;;;;;23.53;17.03;;;;;;;;;;7379434;19;20424;-72
2022/03/13 08:44:11;;;;;;;26.30;17.60;;;;;;;;;;7385358;19;20408;-71
2022/03/13 08:46:41;;;;;;;19.93;17.60;;;;;;;;;;7383831;19;20521;-72
2022/03/13 08:49:12;;;;;;;20.40;15.77;;;;;;;;;;7385842;19;20446;-71
2022/03/13 08:51:42;;;;;;;20.50;16.93;;;;;;;;;;7384027;19;20411;-72
2022/03/13 08:54:16;;;;;;;20.23;15.70;;;;;;;;;;7380428;19;20379;-72
2022/03/13 08:56:49;;;;;;;18.47;15.80;;;;;;;;;;7379483;19;21060;-72
2022/03/13 08:59:20;;;;;;;21.67;17.50;;;;;;;;;;7379639;19;20408;-72
2022/03/13 09:01:51;;;;;;;22.33;17.33;;;;;;;;;;7370695;19;20578;-72
2022/03/13 09:04:21;;;;;;;19.90;16.67;;;;;;;;;;7367618;19;20420;-73
2022/03/13 09:06:51;;;;;;;21.10;16.70;;;;;;;;;;7379483;19;20404;-73
2022/03/13 09:09:23;;;;;;;28.27;17.67;;;;;;;;;;7371871;19;20396;-74
2022/03/13 09:11:56;;;;;;;23.37;19.00;;;;;;;;;;7373606;19;20404;-72
2022/03/13 09:14:26;;;;;;;24.00;17.43;;;;;;;;;;7371695;19;21068;-72
2022/03/13 09:16:56;;;;;;;21.00;17.30;;;;;;;;;;7376331;19;20968;-72
2022/03/13 09:19:26;;;;;;;19.23;16.67;;;;;;;;;;7379230;19;20412;-72
2022/03/13 09:21:55;;;;;;;18.80;16.30;;;;;;;;;;7368656;19;21185;-71
2022/03/13 09:24:27;;;;;;;20.93;16.57;;;;;;;;;;7371431;19;20404;-71
2022/03/13 09:26:59;;;;;;;19.50;17.47;;;;;;;;;;7373015;19;20470;-72
2022/03/13 09:29:29;;;;;;;21.60;16.83;;;;;;;;;;7369737;19;21337;-71
2022/03/13 09:31:59;;;;;;;18.30;16.40;;;;;;;;;;7376253;19;21144;-72
2022/03/13 09:34:29;;;;;;;20.30;16.40;;;;;;;;;;7377870;19;20412;-72
2022/03/13 09:36:59;;;;;;;18.80;16.30;;;;;;;;;;7378657;19;20412;-73
2022/03/13 09:39:29;;;;;;;20.63;15.87;;;;;;;;;;7366535;19;20407;-72
2022/03/13 09:42:02;;;;;;;18.00;16.10;;;;;;;;;;7376694;19;20388;-72
2022/03/13 09:44:32;;;;;;;19.80;16.03;;;;;;;;;;7369787;19;20761;-73
2022/03/13 09:47:02;;;;;;;18.70;14.83;;;;;;;;;;7379032;19;20954;-74
2022/03/13 09:49:32;;;;;;;17.17;14.90;;;;;;;;;;7377871;19;20420;-73
2022/03/13 09:52:02;;;;;;;17.50;15.03;;;;;;;;;;7381907;19;20399;-73
2022/03/13 09:54:32;;;;;;;18.40;16.50;;;;;;;;;;7378596;19;20429;-70
2022/03/13 09:57:08;;;;;;;21.00;15.07;;;;;;;;;;7373731;19;20961;-77
2022/03/13 09:59:38;;;;;;;20.17;16.47;;;;;;;;;;7377831;19;20968;-77
2022/03/13 10:02:08;;;;;;;18.33;16.30;;;;;;;;;;7379849;19;20404;-75
2022/03/13 10:04:38;;;;;;;18.33;15.50;;;;;;;;;;7377777;19;20412;-77
2022/03/13 10:07:10;;;;;;;18.20;15.63;;;;;;;;;;7377545;19;21081;-75
2022/03/13 10:09:40;;;;;;;19.40;16.07;;;;;;;;;;7372637;19;20408;-75
2022/03/13 10:12:14;;;;;;;17.67;15.97;;;;;;;;;;7380652;19;20376;-76
2022/03/13 10:15:03;;;;;;;21.93;15.80;;;;;;;;;;7379860;19;20497;-75
2022/03/13 10:17:33;;;;;;;20.30;17.00;;;;;;;;;;7380794;19;20730;-75
2022/03/13 10:20:14;;;;;;;18.53;16.53;;;;;;;;;;7374852;19;20444;-75
2022/03/13 10:22:47;;;;;;;19.63;16.33;;;;;;;;;;7379920;19;20790;-75
2022/03/13 10:25:21;;;;;;;19.77;17.40;;;;;;;;;;7376766;19;20410;-75
2022/03/13 10:27:56;;;;;;;19.47;17.37;;;;;;;;;;7380296;19;20985;-75
2022/03/13 10:30:28;;;;;;;19.20;17.20;;;;;;;;;;7381004;19;20411;-75
2022/03/13 10:32:59;;;;;;;20.40;17.90;;;;;;;;;;7379455;19;22656;-77
2022/03/13 10:35:31;;;;;;;19.60;17.53;;;;;;;;;;7380069;19;20392;-77
2022/03/13 10:38:01;;;;;;;20.47;18.00;;;;;;;;;;7382624;19;20415;-75
2022/03/13 10:40:36;;;;;;;19.77;17.17;;;;;;;;;;7363130;19;20411;-69
2022/03/13 10:43:11;;;;;;;20.10;18.10;;;;;;;;;;7373918;19;20402;-70
2022/03/13 10:45:49;;;;;;;20.00;17.90;;;;;;;;;;7368444;19;20423;-70
2022/03/13 10:48:22;;;;;;;20.07;17.37;;;;;;;;;;7377918;19;20419;-68
2022/03/13 10:50:53;;;;;;;21.57;18.20;;;;;;;;;;7375618;19;20416;-68
2022/03/13 10:53:24;;;;;;;21.23;18.53;;;;;;;;;;7378566;19;20420;-68
2022/03/13 10:56:09;;;;;;;19.33;17.27;;;;;;;;;;7373729;19;20371;-68
2022/03/13 10:58:42;;;;;;;20.07;17.43;;;;;;;;;;7370845;19;20422;-68
2022/03/13 11:01:16;;;;;;;19.80;17.80;;;;;;;;;;7366749;19;20415;-68
2022/03/13 11:03:52;;;;;;;19.47;17.43;;;;;;;;;;7371402;19;21185;-68
2022/03/13 11:06:22;;;;;;;20.97;18.70;;;;;;;;;;7372486;19;20423;-68
2022/03/13 11:08:55;;;;;;;21.83;19.67;;;;;;;;;;7372991;19;20805;-68
2022/03/13 11:11:27;;;;;;;23.50;21.00;;;;;;;;;;7379557;19;20472;-68
2022/03/13 11:14:01;;;;;;;21.33;19.03;;;;;;;;;;7370377;19;20412;-68
2022/03/13 11:16:31;;;;;;;21.87;19.60;;;;;;;;;;7377544;19;20798;-68
2022/03/13 11:19:06;;;;;;;24.03;20.93;;;;;;;;;;7375125;19;20428;-68
2022/03/13 11:21:36;;;;;;;22.70;20.30;;;;;;;;;;7377029;19;20403;-68
2022/03/13 11:24:05;;;;;;;22.00;19.80;;;;;;;;;;7372252;19;21157;-69
2022/03/13 11:26:40;;;;;;;20.63;18.50;;;;;;;;;;7375104;19;20376;-68
2022/03/13 11:29:13;;;;;;;20.90;18.70;;;;;;;;;;7371501;19;20468;-69
2022/03/13 11:31:47;;;;;;;21.50;19.20;;;;;;;;;;7369513;19;20892;-68
2022/03/13 11:34:20;;;;;;;21.77;19.37;;;;;;;;;;7368925;19;20390;-69
2022/03/13 11:36:52;;;;;;;24.83;20.00;;;;;;;;;;7370005;19;20492;-68
2022/03/13 11:39:28;;;;;;;26.40;21.30;;;;;;;;;;7375465;19;20404;-68
2022/03/13 11:42:01;;;;;;;26.30;19.37;;;;;;;;;;7371381;19;20383;-68
2022/03/13 11:44:42;;;;;;;23.13;20.63;;;;;;;;;;7380463;19;20760;-69
2022/03/13 11:47:23;;;;;;;22.33;19.70;;;;;;;;;;7374876;19;20432;-69
2022/03/13 11:49:53;;;;;;;24.90;19.70;;;;;;;;;;7375226;19;20399;-68
2022/03/13 11:52:33;;;;;;;21.30;19.00;;;;;;;;;;7374597;19;20378;-69
2022/03/13 11:55:13;;;;;;;23.23;20.70;;;;;;;;;;7375330;19;20408;-70
2022/03/13 11:57:50;;;;;;;23.17;20.67;;;;;;;;;;7375503;19;20492;-70
2022/03/13 12:00:32;;;;;;;23.20;20.70;;;;;;;;;;7377248;19;20481;-70
2022/03/13 12:03:11;;;;;;;21.43;19.13;;;;;;;;;;7377046;19;20404;-70
2022/03/13 12:05:51;;;;;;;21.77;19.30;;;;;;;;;;7375138;19;20952;-70
2022/03/13 12:08:22;;;;;;;19.77;17.70;;;;;;;;;;7375458;19;20367;-70
2022/03/13 12:10:54;;;;;;;20.20;18.00;;;;;;;;;;7378985;19;20378;-69
2022/03/13 12:13:25;;;;;;;21.47;19.27;;;;;;;;;;7377926;19;20376;-69
2022/03/13 12:15:58;;;;;;;20.40;18.40;;;;;;;;;;7376989;19;20391;-69
2022/03/13 12:18:32;;;;;;;19.03;16.70;;;;;;;;;;7364924;19;20380;-70
2022/03/13 12:21:10;;;;;;;21.17;18.20;;;;;;;;;;7373320;19;20375;-68
2022/03/13 12:23:43;;;;;;;21.10;18.67;;;;;;;;;;7376327;19;20383;-69
2022/03/13 12:26:20;;;;;;;23.13;18.27;;;;;;;;;;7372001;19;20452;-68
2022/03/13 12:28:58;;;;;;;22.33;20.03;;;;;;;;;;7377062;19;20767;-68
2022/03/13 12:31:41;;;;;;;22.37;20.07;;;;;;;;;;7374252;19;20467;-68
2022/03/13 12:34:12;;;;;;;21.90;19.47;;;;;;;;;;7364412;19;20485;-69
2022/03/13 12:36:43;;;;;;;21.43;19.23;;;;;;;;;;7369327;19;20408;-68
2022/03/13 12:39:14;;;;;;;21.47;19.17;;;;;;;;;;7378112;19;20426;-69
2022/03/13 12:41:44;;;;;;;22.50;20.10;;;;;;;;;;7376574;19;21804;-68
2022/03/13 12:44:15;;;;;;;23.20;19.63;;;;;;;;;;7371533;19;20408;-68
2022/03/13 12:46:51;;;;;;;21.07;18.80;;;;;;;;;;7372023;19;20431;-69
2022/03/13 12:49:21;;;;;;;24.90;20.10;;;;;;;;;;7368680;19;20404;-69
2022/03/13 12:51:52;;;;;;;21.77;19.47;;;;;;;;;;7368345;19;20408;-69
2022/03/13 12:54:28;;;;;;;23.17;20.03;;;;;;;;;;7375027;19;20384;-69
2022/03/13 12:57:01;;;;;;;20.97;18.77;;;;;;;;;;7376871;19;20438;-69
2022/03/13 12:59:33;;;;;;;22.33;19.80;;;;;;;;;;7375117;19;20738;-69
2022/03/13 13:02:10;;;;;;;21.07;18.87;;;;;;;;;;7371083;19;21234;-68
2022/03/13 13:04:40;;;;;;;23.20;19.70;;;;;;;;;;7367923;19;20441;-68
2022/03/13 13:07:13;;;;;;;22.23;19.67;;;;;;;;;;7372878;19;20516;-69
2022/03/13 13:09:43;;;;;;;20.50;18.37;;;;;;;;;;7371054;19;20383;-69
2022/03/13 13:12:13;;;;;;;22.03;19.60;;;;;;;;;;7369811;19;20417;-69
2022/03/13 13:14:45;;;;;;;22.23;18.93;;;;;;;;;;7369752;19;21229;-69
2022/03/13 13:17:18;;;;;;;17.10;15.30;;;;;;;;;;7349523;19;20482;-69
2022/03/13 13:19:49;;;;;;;22.50;18.90;;;;;;;;;;7366843;19;20391;-69
2022/03/13 13:22:19;;;;;;;28.13;20.40;;;;;;;;;;7372330;19;20460;-69
2022/03/13 13:24:52;;;;;;;19.67;17.50;;;;;;;;;;7374490;19;20412;-69
2022/03/13 13:27:45;;;;;;;21.20;19.00;;;;;;;;;;7371155;19;20395;-68
2022/03/13 13:30:26;;;;;;;20.77;18.67;;;;;;;;;;7373129;19;20437;-69
2022/03/13 13:33:02;;;;;;;21.43;19.13;;;;;;;;;;7373589;19;20411;-69
2022/03/13 13:35:34;;;;;;;20.87;18.70;;;;;;;;;;7372551;19;20427;-68
2022/03/13 13:38:04;;;;;;;18.20;16.23;;;;;;;;;;7376009;19;20380;-70
2022/03/13 13:40:38;;;;;;;20.37;17.17;;;;;;;;;;7372693;19;20412;-69
2022/03/13 13:43:14;;;;;;;23.53;18.53;;;;;;;;;;7356371;19;20384;-78
2022/03/13 13:45:48;;;;;;;21.10;17.37;;;;;;;;;;7366376;19;20412;-78
2022/03/13 13:48:24;;;;;;;19.67;17.37;;;;;;;;;;7353111;19;20419;-78
2022/03/13 13:51:09;;;;;;;19.67;17.60;;;;;;;;;;7355531;19;20399;-78
2022/03/13 13:53:48;;;;;;;20.77;18.60;;;;;;;;;;7359362;19;20396;-77
2022/03/13 13:56:18;;;;;;;20.83;17.37;;;;;;;;;;7345201;19;21128;-78
2022/03/13 13:58:50;;;;;;;18.70;16.87;;;;;;;;;;7371992;19;20378;-78
2022/03/13 14:01:31;;;;;;;19.33;17.33;;;;;;;;;;7376835;19;20366;-77
2022/03/13 14:04:06;;;;;;;19.43;17.07;;;;;;;;;;7378375;19;20383;-78
2022/03/13 14:06:37;;;;;;;19.73;17.17;;;;;;;;;;7373084;19;20480;-77
2022/03/13 14:09:08;;;;;;;19.37;17.27;;;;;;;;;;7378457;19;20416;-77
2022/03/13 14:11:40;;;;;;;18.70;16.70;;;;;;;;;;7378463;19;20437;-77
2022/03/13 14:14:12;;;;;;;20.50;18.30;;;;;;;;;;7366841;19;20414;-77
2022/03/13 14:16:43;;;;;;;21.30;18.73;;;;;;;;;;7361898;19;20400;-76
2022/03/13 14:19:15;;;;;;;20.53;18.03;;;;;;;;;;7364477;19;20393;-77
2022/03/13 14:21:47;;;;;;;21.70;18.30;;;;;;;;;;7363738;19;20793;-77
2022/03/13 14:24:17;;;;;;;20.97;18.17;;;;;;;;;;7360457;19;20409;-77